sensor_id;sensor_type;location;lat;lon;timestamp;pressure;altitude;pressure_sealevel;temperature;humidity
6778;BME280;3426;52.244;10.534;2022-12-13T00:00:53;100503.69;;;-2.46;65.41
6778;BME280;3426;52.244;10.534;2022-12-13T00:03:20;100497.53;;;-2.22;65.35
6778;BME280;3426;52.244;10.534;2022-12-13T00:05:46;100489.81;;;-2.34;64.68
6778;BME280;3426;52.244;10.534;2022-12-13T00:08:13;100494.88;;;-2.11;65.06
6778;BME280;3426;52.244;10.534;2022-12-13T00:10:39;100501.84;;;-2.20;64.77
6778;BME280;3426;52.244;10.534;2022-12-13T00:13:06;100499.19;;;-2.07;64.47
6778;BME280;3426;52.244;10.534;2022-12-13T00:15:32;100496.59;;;-2.09;64.07
6778;BME280;3426;52.244;10.534;2022-12-13T00:17:59;100497.47;;;-2.08;63.97
6778;BME280;3426;52.244;10.534;2022-12-13T00:20:25;100502.75;;;-2.25;64.70
6778;BME280;3426;52.244;10.534;2022-12-13T00:22:51;100493.16;;;-2.13;64.16
6778;BME280;3426;52.244;10.534;2022-12-13T00:25:18;100485.44;;;-2.20;64.28
6778;BME280;3426;52.244;10.534;2022-12-13T00:27:46;100481.97;;;-2.21;64.00
6778;BME280;3426;52.244;10.534;2022-12-13T00:30:13;100486.38;;;-2.43;64.06
6778;BME280;3426;52.244;10.534;2022-12-13T00:32:39;100473.44;;;-2.43;64.49
6778;BME280;3426;52.244;10.534;2022-12-13T00:35:06;100476.97;;;-2.67;64.74
6778;BME280;3426;52.244;10.534;2022-12-13T00:37:32;100479.47;;;-2.50;64.87
6778;BME280;3426;52.244;10.534;2022-12-13T00:39:59;100480.31;;;-2.35;63.84
6778;BME280;3426;52.244;10.534;2022-12-13T00:42:25;100488.91;;;-2.24;63.75
6778;BME280;3426;52.244;10.534;2022-12-13T00:44:52;100481.13;;;-2.26;63.65
6778;BME280;3426;52.244;10.534;2022-12-13T00:47:18;100488.09;;;-2.32;63.63
6778;BME280;3426;52.244;10.534;2022-12-13T00:49:46;100482.00;;;-2.33;64.14
6778;BME280;3426;52.244;10.534;2022-12-13T00:52:12;100486.47;;;-2.64;63.89
6778;BME280;3426;52.244;10.534;2022-12-13T00:54:38;100478.63;;;-2.52;63.65
6778;BME280;3426;52.244;10.534;2022-12-13T00:57:05;100482.16;;;-2.65;64.15
6778;BME280;3426;52.244;10.534;2022-12-13T00:59:31;100476.88;;;-2.50;64.56
6778;BME280;3426;52.244;10.534;2022-12-13T01:01:58;100473.41;;;-2.38;64.20
6778;BME280;3426;52.244;10.534;2022-12-13T01:04:25;100483.78;;;-2.46;64.39
6778;BME280;3426;52.244;10.534;2022-12-13T01:06:52;100466.53;;;-2.48;64.48
6778;BME280;3426;52.244;10.534;2022-12-13T01:09:23;100461.34;;;-2.44;64.49
6778;BME280;3426;52.244;10.534;2022-12-13T01:12:00;100469.97;;;-2.43;64.04
6778;BME280;3426;52.244;10.534;2022-12-13T01:14:27;100470.81;;;-2.38;64.22
6778;BME280;3426;52.244;10.534;2022-12-13T01:16:54;100474.25;;;-2.39;64.14
6778;BME280;3426;52.244;10.534;2022-12-13T01:19:22;100469.13;;;-2.48;64.08
6778;BME280;3426;52.244;10.534;2022-12-13T01:21:56;100469.09;;;-2.47;63.77
6778;BME280;3426;52.244;10.534;2022-12-13T01:24:25;100476.94;;;-2.54;63.89
6778;BME280;3426;52.244;10.534;2022-12-13T01:26:52;100473.41;;;-2.46;63.74
6778;BME280;3426;52.244;10.534;2022-12-13T01:29:23;100464.81;;;-2.49;63.57
6778;BME280;3426;52.244;10.534;2022-12-13T01:31:52;100476.16;;;-2.78;64.43
6778;BME280;3426;52.244;10.534;2022-12-13T01:34:20;100464.88;;;-2.78;64.16
6778;BME280;3426;52.244;10.534;2022-12-13T01:36:53;100470.88;;;-2.62;64.41
6778;BME280;3426;52.244;10.534;2022-12-13T01:39:25;100467.47;;;-2.64;64.15
6778;BME280;3426;52.244;10.534;2022-12-13T01:41:53;100467.41;;;-2.55;64.05
6778;BME280;3426;52.244;10.534;2022-12-13T01:44:57;100471.88;;;-2.99;64.18
6778;BME280;3426;52.244;10.534;2022-12-13T01:47:32;100470.06;;;-2.78;64.55
6778;BME280;3426;52.244;10.534;2022-12-13T01:50:06;100465.72;;;-2.69;64.46
6778;BME280;3426;52.244;10.534;2022-12-13T01:52:34;100463.97;;;-2.62;63.52
6778;BME280;3426;52.244;10.534;2022-12-13T01:55:03;100460.56;;;-2.75;63.41
6778;BME280;3426;52.244;10.534;2022-12-13T01:57:32;100461.44;;;-2.80;64.13
6778;BME280;3426;52.244;10.534;2022-12-13T02:00:00;100470.19;;;-3.12;64.76
6778;BME280;3426;52.244;10.534;2022-12-13T02:02:27;100462.34;;;-2.95;64.64
6778;BME280;3426;52.244;10.534;2022-12-13T02:05:03;100458.03;;;-2.96;64.67
6778;BME280;3426;52.244;10.534;2022-12-13T02:07:31;100463.16;;;-2.79;63.92
6778;BME280;3426;52.244;10.534;2022-12-13T02:10:02;100463.16;;;-2.79;63.89
6778;BME280;3426;52.244;10.534;2022-12-13T02:12:33;100458.84;;;-2.76;63.69
6778;BME280;3426;52.244;10.534;2022-12-13T02:15:02;100464.91;;;-2.84;63.52
6778;BME280;3426;52.244;10.534;2022-12-13T02:31:07;100446.81;;;-2.89;63.14
6778;BME280;3426;52.244;10.534;2022-12-13T02:36:29;100451.13;;;-2.94;63.57
6778;BME280;3426;52.244;10.534;2022-12-13T02:39:09;100450.25;;;-2.96;63.81
6778;BME280;3426;52.244;10.534;2022-12-13T02:41:49;100448.50;;;-2.89;63.31
6778;BME280;3426;52.244;10.534;2022-12-13T02:46:54;100458.06;;;-3.13;63.73
6778;BME280;3426;52.244;10.534;2022-12-13T02:49:24;100447.69;;;-2.95;63.94
6778;BME280;3426;52.244;10.534;2022-12-13T02:51:53;100449.41;;;-3.03;63.88
6778;BME280;3426;52.244;10.534;2022-12-13T02:54:22;100445.13;;;-3.13;63.99
6778;BME280;3426;52.244;10.534;2022-12-13T02:56:56;100451.16;;;-3.08;64.20
6778;BME280;3426;52.244;10.534;2022-12-13T02:59:28;100453.72;;;-2.94;63.81
6778;BME280;3426;52.244;10.534;2022-12-13T03:02:15;100445.09;;;-2.95;64.18
6778;BME280;3426;52.244;10.534;2022-12-13T03:08:23;100445.09;;;-2.95;64.02
6778;BME280;3426;52.244;10.534;2022-12-13T03:11:07;100444.25;;;-3.00;64.00
6778;BME280;3426;52.244;10.534;2022-12-13T03:13:57;100448.53;;;-2.96;63.69
6778;BME280;3426;52.244;10.534;2022-12-13T03:16:40;100450.28;;;-2.95;63.68
6778;BME280;3426;52.244;10.534;2022-12-13T03:19:10;100451.22;;;-3.40;63.84
6778;BME280;3426;52.244;10.534;2022-12-13T03:21:39;100447.75;;;-3.31;64.24
6778;BME280;3426;52.244;10.534;2022-12-13T03:24:15;100444.28;;;-3.30;64.13
6778;BME280;3426;52.244;10.534;2022-12-13T03:26:43;100451.19;;;-3.20;63.42
6778;BME280;3426;52.244;10.534;2022-12-13T03:29:09;100446.88;;;-3.21;63.48
6778;BME280;3426;52.244;10.534;2022-12-13T03:31:36;100438.19;;;-3.12;64.08
6778;BME280;3426;52.244;10.534;2022-12-13T03:34:02;100446.84;;;-3.04;63.05
6778;BME280;3426;52.244;10.534;2022-12-13T03:36:29;100440.78;;;-3.02;63.42
6778;BME280;3426;52.244;10.534;2022-12-13T03:38:55;100439.06;;;-3.00;62.58
6778;BME280;3426;52.244;10.534;2022-12-13T03:41:25;100430.44;;;-3.08;62.59
6778;BME280;3426;52.244;10.534;2022-12-13T03:43:58;100433.00;;;-3.02;62.93
6778;BME280;3426;52.244;10.534;2022-12-13T03:46:25;100429.56;;;-3.07;62.43
6778;BME280;3426;52.244;10.534;2022-12-13T03:48:52;100424.44;;;-3.27;62.41
6778;BME280;3426;52.244;10.534;2022-12-13T03:51:18;100440.84;;;-3.41;63.89
6778;BME280;3426;52.244;10.534;2022-12-13T03:53:45;100429.63;;;-3.28;63.51
6778;BME280;3426;52.244;10.534;2022-12-13T03:56:11;100432.22;;;-3.28;63.18
6778;BME280;3426;52.244;10.534;2022-12-13T03:58:37;100421.84;;;-3.30;62.97
6778;BME280;3426;52.244;10.534;2022-12-13T04:01:09;100433.94;;;-3.36;62.89
6778;BME280;3426;52.244;10.534;2022-12-13T04:03:37;100433.09;;;-3.52;63.49
6778;BME280;3426;52.244;10.534;2022-12-13T04:06:05;100441.72;;;-3.61;63.65
6778;BME280;3426;52.244;10.534;2022-12-13T04:08:33;100443.44;;;-3.49;64.29
6778;BME280;3426;52.244;10.534;2022-12-13T04:10:59;100436.53;;;-3.44;63.70
6778;BME280;3426;52.244;10.534;2022-12-13T04:13:46;100431.34;;;-3.41;63.27
6778;BME280;3426;52.244;10.534;2022-12-13T04:16:12;100427.03;;;-3.48;63.76
6778;BME280;3426;52.244;10.534;2022-12-13T04:18:39;100427.03;;;-3.40;63.78
6778;BME280;3426;52.244;10.534;2022-12-13T04:21:05;100425.31;;;-3.44;63.80
6778;BME280;3426;52.244;10.534;2022-12-13T04:23:32;100425.31;;;-3.34;63.36
6778;BME280;3426;52.244;10.534;2022-12-13T04:25:59;100420.97;;;-3.23;62.83
6778;BME280;3426;52.244;10.534;2022-12-13T04:28:26;100420.97;;;-3.26;63.02
6778;BME280;3426;52.244;10.534;2022-12-13T04:30:52;100423.53;;;-3.18;63.12
6778;BME280;3426;52.244;10.534;2022-12-13T04:33:20;100421.84;;;-3.25;63.56
6778;BME280;3426;52.244;10.534;2022-12-13T04:35:48;100427.00;;;-3.24;63.35
6778;BME280;3426;52.244;10.534;2022-12-13T04:38:14;100415.78;;;-3.16;63.22
6778;BME280;3426;52.244;10.534;2022-12-13T04:40:41;100414.06;;;-3.17;63.33
6778;BME280;3426;52.244;10.534;2022-12-13T04:43:08;100415.78;;;-3.12;63.04
6778;BME280;3426;52.244;10.534;2022-12-13T04:45:34;100413.22;;;-3.33;63.97
6778;BME280;3426;52.244;10.534;2022-12-13T04:48:01;100405.50;;;-3.56;64.99
6778;BME280;3426;52.244;10.534;2022-12-13T04:50:27;100400.31;;;-4.01;66.85
6778;BME280;3426;52.244;10.534;2022-12-13T04:52:53;100407.19;;;-3.32;65.14
6778;BME280;3426;52.244;10.534;2022-12-13T04:55:20;100409.72;;;-3.18;64.56
6778;BME280;3426;52.244;10.534;2022-12-13T04:57:46;100413.19;;;-3.15;64.09
6778;BME280;3426;52.244;10.534;2022-12-13T05:00:13;100408.03;;;-3.27;63.77
6778;BME280;3426;52.244;10.534;2022-12-13T05:02:40;100413.22;;;-3.30;64.05
6778;BME280;3426;52.244;10.534;2022-12-13T05:05:08;100410.59;;;-3.18;63.72
6778;BME280;3426;52.244;10.534;2022-12-13T05:07:37;100425.31;;;-3.23;63.71
6778;BME280;3426;52.244;10.534;2022-12-13T05:10:09;100416.66;;;-3.22;64.39
6778;BME280;3426;52.244;10.534;2022-12-13T05:12:36;100423.56;;;-3.20;63.72
6778;BME280;3426;52.244;10.534;2022-12-13T05:15:03;100419.25;;;-3.17;63.92
6778;BME280;3426;52.244;10.534;2022-12-13T05:17:29;100414.06;;;-3.21;63.61
6778;BME280;3426;52.244;10.534;2022-12-13T05:19:56;100416.66;;;-3.22;64.07
6778;BME280;3426;52.244;10.534;2022-12-13T05:22:23;100414.94;;;-3.17;63.68
6778;BME280;3426;52.244;10.534;2022-12-13T05:24:49;100417.50;;;-3.14;63.86
6778;BME280;3426;52.244;10.534;2022-12-13T05:27:16;100411.47;;;-3.22;63.83
6778;BME280;3426;52.244;10.534;2022-12-13T05:29:53;100419.22;;;-3.05;63.84
6778;BME280;3426;52.244;10.534;2022-12-13T05:32:34;100411.44;;;-3.04;63.64
6778;BME280;3426;52.244;10.534;2022-12-13T05:35:10;100414.06;;;-3.11;63.92
6778;BME280;3426;52.244;10.534;2022-12-13T05:37:37;100415.75;;;-3.09;63.69
6778;BME280;3426;52.244;10.534;2022-12-13T05:40:04;100408.84;;;-3.04;63.89
6778;BME280;3426;52.244;10.534;2022-12-13T05:42:31;100407.97;;;-3.04;64.13
6778;BME280;3426;52.244;10.534;2022-12-13T05:44:57;100409.72;;;-3.06;63.74
6778;BME280;3426;52.244;10.534;2022-12-13T05:47:24;100416.59;;;-2.98;63.75
6778;BME280;3426;52.244;10.534;2022-12-13T05:49:50;100412.28;;;-3.00;63.68
6778;BME280;3426;52.244;10.534;2022-12-13T05:52:18;100414.06;;;-3.17;63.33
6778;BME280;3426;52.244;10.534;2022-12-13T05:54:45;100408.84;;;-3.08;63.92
6778;BME280;3426;52.244;10.534;2022-12-13T05:57:12;100413.19;;;-3.06;63.68
6778;BME280;3426;52.244;10.534;2022-12-13T05:59:39;100415.78;;;-3.12;62.97
6778;BME280;3426;52.244;10.534;2022-12-13T06:02:05;100414.97;;;-3.38;64.38
6778;BME280;3426;52.244;10.534;2022-12-13T06:04:32;100417.53;;;-3.46;64.15
6778;BME280;3426;52.244;10.534;2022-12-13T06:06:58;100408.97;;;-3.68;65.11
6778;BME280;3426;52.244;10.534;2022-12-13T06:09:25;100411.50;;;-3.39;64.21
6778;BME280;3426;52.244;10.534;2022-12-13T06:11:51;100426.19;;;-3.53;63.95
6778;BME280;3426;52.244;10.534;2022-12-13T06:14:26;100417.56;;;-3.57;64.44
6778;BME280;3426;52.244;10.534;2022-12-13T06:16:53;100421.00;;;-3.44;64.16
6778;BME280;3426;52.244;10.534;2022-12-13T06:19:20;100425.31;;;-3.44;64.60
6778;BME280;3426;52.244;10.534;2022-12-13T06:21:52;100416.66;;;-3.40;64.33
6778;BME280;3426;52.244;10.534;2022-12-13T06:24:20;100416.69;;;-3.54;64.01
6778;BME280;3426;52.244;10.534;2022-12-13T06:26:48;100417.53;;;-3.37;63.61
6778;BME280;3426;52.244;10.534;2022-12-13T06:29:17;100415.78;;;-3.30;63.70
6778;BME280;3426;52.244;10.534;2022-12-13T06:32:00;100412.34;;;-3.26;63.72
6778;BME280;3426;52.244;10.534;2022-12-13T06:34:33;100417.50;;;-3.20;63.69
6778;BME280;3426;52.244;10.534;2022-12-13T06:37:03;100420.94;;;-3.18;63.65
6778;BME280;3426;52.244;10.534;2022-12-13T06:39:30;100416.63;;;-3.13;63.88
6778;BME280;3426;52.244;10.534;2022-12-13T06:41:59;100413.16;;;-3.09;63.49
6778;BME280;3426;52.244;10.534;2022-12-13T06:44:25;100426.13;;;-3.13;63.81
6778;BME280;3426;52.244;10.534;2022-12-13T06:46:52;100438.25;;;-3.31;63.86
6778;BME280;3426;52.244;10.534;2022-12-13T06:49:38;100431.34;;;-3.16;63.43
6778;BME280;3426;52.244;10.534;2022-12-13T06:52:07;100433.00;;;-3.03;62.73
6778;BME280;3426;52.244;10.534;2022-12-13T06:54:34;100432.16;;;-3.13;63.07
6778;BME280;3426;52.244;10.534;2022-12-13T06:57:00;100428.72;;;-3.06;62.98
6778;BME280;3426;52.244;10.534;2022-12-13T06:59:27;100434.72;;;-3.02;63.13
6778;BME280;3426;52.244;10.534;2022-12-13T07:01:53;100436.47;;;-3.09;63.28
6778;BME280;3426;52.244;10.534;2022-12-13T07:04:29;100441.66;;;-3.09;62.98
6778;BME280;3426;52.244;10.534;2022-12-13T07:06:56;100437.31;;;-3.01;62.97
6778;BME280;3426;52.244;10.534;2022-12-13T07:09:31;100442.50;;;-3.02;62.38
6778;BME280;3426;52.244;10.534;2022-12-13T07:11:58;100439.91;;;-3.02;62.68
6778;BME280;3426;52.244;10.534;2022-12-13T07:14:25;100444.25;;;-3.13;62.80
6778;BME280;3426;52.244;10.534;2022-12-13T07:16:52;100444.28;;;-3.24;63.67
6778;BME280;3426;52.244;10.534;2022-12-13T07:19:28;100450.34;;;-3.28;64.07
6778;BME280;3426;52.244;10.534;2022-12-13T07:22:01;100453.78;;;-3.31;63.98
6778;BME280;3426;52.244;10.534;2022-12-13T07:24:28;100445.97;;;-3.05;63.56
6778;BME280;3426;52.244;10.534;2022-12-13T07:26:54;100453.69;;;-2.86;63.52
6778;BME280;3426;52.244;10.534;2022-12-13T07:29:20;100451.13;;;-2.96;63.54
6778;BME280;3426;52.244;10.534;2022-12-13T07:31:48;100442.50;;;-2.98;63.59
6778;BME280;3426;52.244;10.534;2022-12-13T07:34:14;100456.25;;;-2.76;63.05
6778;BME280;3426;52.244;10.534;2022-12-13T07:36:41;100445.06;;;-2.82;63.21
6778;BME280;3426;52.244;10.534;2022-12-13T07:39:07;100451.19;;;-3.28;64.25
6778;BME280;3426;52.244;10.534;2022-12-13T07:41:34;100445.97;;;-3.09;64.51
6778;BME280;3426;52.244;10.534;2022-12-13T07:44:00;100447.69;;;-2.98;63.92
6778;BME280;3426;52.244;10.534;2022-12-13T07:46:27;100450.25;;;-2.93;63.70
6778;BME280;3426;52.244;10.534;2022-12-13T07:49:03;100447.66;;;-2.91;64.29
6778;BME280;3426;52.244;10.534;2022-12-13T07:51:32;100450.22;;;-2.79;63.92
6778;BME280;3426;52.244;10.534;2022-12-13T07:53:59;100451.91;;;-2.64;63.77
6778;BME280;3426;52.244;10.534;2022-12-13T07:56:25;100461.41;;;-2.70;63.41
6778;BME280;3426;52.244;10.534;2022-12-13T07:58:52;100452.00;;;-2.98;64.04
6778;BME280;3426;52.244;10.534;2022-12-13T08:01:18;100457.22;;;-3.12;64.86
6778;BME280;3426;52.244;10.534;2022-12-13T08:03:47;100451.13;;;-2.91;64.54
6778;BME280;3426;52.244;10.534;2022-12-13T08:06:14;100457.13;;;-2.77;64.71
6778;BME280;3426;52.244;10.534;2022-12-13T08:08:40;100447.53;;;-2.52;64.19
6778;BME280;3426;52.244;10.534;2022-12-13T08:11:09;100453.66;;;-2.67;64.50
6778;BME280;3426;52.244;10.534;2022-12-13T08:13:36;100448.47;;;-2.67;64.77
6778;BME280;3426;52.244;10.534;2022-12-13T08:16:05;100448.28;;;-2.27;63.99
6778;BME280;3426;52.244;10.534;2022-12-13T08:18:52;100442.88;;;-1.92;63.05
6778;BME280;3426;52.244;10.534;2022-12-13T08:21:29;100448.59;;;-1.50;61.83
6778;BME280;3426;52.244;10.534;2022-12-13T08:24:18;100452.22;;;-1.69;62.52
6778;BME280;3426;52.244;10.534;2022-12-13T08:26:45;100449.59;;;-1.66;61.94
6778;BME280;3426;52.244;10.534;2022-12-13T08:29:11;100443.53;;;-1.64;61.55
6778;BME280;3426;52.244;10.534;2022-12-13T08:31:48;100447.50;;;-1.26;61.25
6778;BME280;3426;52.244;10.534;2022-12-13T08:34:15;100447.28;;;-1.00;60.61
6778;BME280;3426;52.244;10.534;2022-12-13T08:36:43;100450.06;;;-0.41;59.30
6778;BME280;3426;52.244;10.534;2022-12-13T08:39:09;100446.91;;;0.00;58.27
6778;BME280;3426;52.244;10.534;2022-12-13T08:41:36;100449.69;;;-0.14;56.55
6778;BME280;3426;52.244;10.534;2022-12-13T08:44:04;100443.34;;;0.04;55.61
6778;BME280;3426;52.244;10.534;2022-12-13T08:46:31;100441.28;;;0.78;54.64
6778;BME280;3426;52.244;10.534;2022-12-13T08:48:58;100442.53;;;0.58;54.21
6778;BME280;3426;52.244;10.534;2022-12-13T08:51:24;100439.53;;;0.79;54.21
6778;BME280;3426;52.244;10.534;2022-12-13T08:54:00;100433.97;;;1.44;53.00
6778;BME280;3426;52.244;10.534;2022-12-13T08:56:36;100437.00;;;1.64;51.73
6778;BME280;3426;52.244;10.534;2022-12-13T08:59:03;100439.06;;;1.50;52.40
6778;BME280;3426;52.244;10.534;2022-12-13T09:01:30;100441.28;;;2.07;51.43
6778;BME280;3426;52.244;10.534;2022-12-13T09:03:57;100432.78;;;2.70;49.94
6778;BME280;3426;52.244;10.534;2022-12-13T09:06:23;100436.47;;;3.28;48.91
6778;BME280;3426;52.244;10.534;2022-12-13T09:08:53;100435.75;;;3.54;47.79
6778;BME280;3426;52.244;10.534;2022-12-13T09:11:20;100427.34;;;4.01;47.39
6778;BME280;3426;52.244;10.534;2022-12-13T09:14:03;100431.44;;;4.64;45.82
6778;BME280;3426;52.244;10.534;2022-12-13T09:16:30;100430.56;;;4.37;45.65
6778;BME280;3426;52.244;10.534;2022-12-13T09:19:03;100428.31;;;3.98;46.50
6778;BME280;3426;52.244;10.534;2022-12-13T09:21:50;100428.31;;;3.98;47.02
6778;BME280;3426;52.244;10.534;2022-12-13T09:24:16;100435.13;;;4.04;46.43
6778;BME280;3426;52.244;10.534;2022-12-13T09:26:55;100436.63;;;3.83;47.56
6778;BME280;3426;52.244;10.534;2022-12-13T09:29:23;100433.91;;;4.14;46.16
6778;BME280;3426;52.244;10.534;2022-12-13T09:31:49;100440.50;;;3.09;48.32
6778;BME280;3426;52.244;10.534;2022-12-13T09:34:18;100440.66;;;2.34;49.68
6778;BME280;3426;52.244;10.534;2022-12-13T09:36:45;100443.16;;;3.38;48.63
6778;BME280;3426;52.244;10.534;2022-12-13T09:39:11;100438.97;;;3.62;48.69
6778;BME280;3426;52.244;10.534;2022-12-13T09:41:49;100443.44;;;4.44;46.71
6778;BME280;3426;52.244;10.534;2022-12-13T09:44:32;100439.56;;;5.08;45.61
6778;BME280;3426;52.244;10.534;2022-12-13T09:47:15;100436.38;;;4.98;45.00
6778;BME280;3426;52.244;10.534;2022-12-13T09:49:49;100443.59;;;4.40;46.16
6778;BME280;3426;52.244;10.534;2022-12-13T09:52:21;100435.31;;;3.38;47.19
6778;BME280;3426;52.244;10.534;2022-12-13T09:54:52;100455.50;;;2.68;49.39
6778;BME280;3426;52.244;10.534;2022-12-13T09:57:31;100436.28;;;2.35;50.85
6778;BME280;3426;52.244;10.534;2022-12-13T10:00:23;100431.06;;;1.57;53.15
6778;BME280;3426;52.244;10.534;2022-12-13T10:02:53;100432.91;;;1.52;53.43
6778;BME280;3426;52.244;10.534;2022-12-13T10:05:27;100428.72;;;1.00;55.51
6778;BME280;3426;52.244;10.534;2022-12-13T10:08:11;100430.50;;;1.42;55.79
6778;BME280;3426;52.244;10.534;2022-12-13T10:10:39;100430.06;;;0.73;56.99
6778;BME280;3426;52.244;10.534;2022-12-13T10:17:04;100425.53;;;0.86;57.15
6778;BME280;3426;52.244;10.534;2022-12-13T10:19:35;100420.41;;;1.26;56.20
6778;BME280;3426;52.244;10.534;2022-12-13T10:22:04;100424.06;;;1.16;56.92
6778;BME280;3426;52.244;10.534;2022-12-13T10:27:29;100426.31;;;0.90;57.97
6778;BME280;3426;52.244;10.534;2022-12-13T10:29:59;100431.22;;;0.59;57.50
6778;BME280;3426;52.244;10.534;2022-12-13T10:32:27;100426.03;;;0.57;57.27
6778;BME280;3426;52.244;10.534;2022-12-13T10:34:54;100412.91;;;0.63;57.86
6778;BME280;3426;52.244;10.534;2022-12-13T10:37:30;100414.66;;;0.61;58.36
6778;BME280;3426;52.244;10.534;2022-12-13T10:39:57;100405.53;;;0.87;58.47
6778;BME280;3426;52.244;10.534;2022-12-13T10:42:24;100407.63;;;0.14;59.21
6778;BME280;3426;52.244;10.534;2022-12-13T10:45:20;100399.81;;;0.66;58.79
6778;BME280;3426;52.244;10.534;2022-12-13T10:47:49;100401.44;;;0.72;58.83
6778;BME280;3426;52.244;10.534;2022-12-13T10:50:25;100394.53;;;0.69;59.67
6778;BME280;3426;52.244;10.534;2022-12-13T10:52:53;100388.28;;;0.79;59.08
6778;BME280;3426;52.244;10.534;2022-12-13T10:57:55;100395.34;;;0.23;60.31
6778;BME280;3426;52.244;10.534;2022-12-13T11:00:32;100386.03;;;0.60;60.03
6778;BME280;3426;52.244;10.534;2022-12-13T11:02:59;100396.16;;;0.76;59.86
6778;BME280;3426;52.244;10.534;2022-12-13T11:05:31;100387.81;;;1.04;59.50
6778;BME280;3426;52.244;10.534;2022-12-13T11:08:21;100390.56;;;0.95;58.89
6778;BME280;3426;52.244;10.534;2022-12-13T11:10:57;100387.84;;;1.01;59.04
6778;BME280;3426;52.244;10.534;2022-12-13T11:15:56;100384.03;;;0.74;59.75
6778;BME280;3426;52.244;10.534;2022-12-13T11:18:24;100370.88;;;1.23;58.06
6778;BME280;3426;52.244;10.534;2022-12-13T11:20:58;100370.84;;;0.82;58.68
6778;BME280;3426;52.244;10.534;2022-12-13T11:23:34;100366.25;;;0.94;58.37
6778;BME280;3426;52.244;10.534;2022-12-13T11:26:15;100367.94;;;1.40;57.28
6778;BME280;3426;52.244;10.534;2022-12-13T11:32:00;100367.56;;;1.57;58.16
6778;BME280;3426;52.244;10.534;2022-12-13T11:37:29;100368.31;;;1.62;56.13
6778;BME280;3426;52.244;10.534;2022-12-13T11:40:24;100359.59;;;1.63;57.41
6778;BME280;3426;52.244;10.534;2022-12-13T11:45:57;100361.38;;;1.61;55.96
6778;BME280;3426;52.244;10.534;2022-12-13T11:50:59;100342.91;;;1.70;57.09
6778;BME280;3426;52.244;10.534;2022-12-13T11:56:21;100358.44;;;1.36;56.10
6778;BME280;3426;52.244;10.534;2022-12-13T12:02:05;100342.78;;;1.36;56.28
6778;BME280;3426;52.244;10.534;2022-12-13T12:04:49;100343.81;;;1.30;57.04
6778;BME280;3426;52.244;10.534;2022-12-13T12:13:15;100339.13;;;1.83;56.84
6778;BME280;3426;52.244;10.534;2022-12-13T12:18:21;100325.22;;;1.83;56.08
6778;BME280;3426;52.244;10.534;2022-12-13T12:20:59;100328.56;;;1.88;55.88
6778;BME280;3426;52.244;10.534;2022-12-13T12:23:38;100326.81;;;1.89;56.83
6778;BME280;3426;52.244;10.534;2022-12-13T12:26:20;100325.81;;;1.57;56.44
6778;BME280;3426;52.244;10.534;2022-12-13T12:31:50;100325.31;;;1.78;55.71
6778;BME280;3426;52.244;10.534;2022-12-13T12:34:41;100327.53;;;1.95;55.23
6778;BME280;3426;52.244;10.534;2022-12-13T12:37:38;100319.28;;;2.12;55.54
6778;BME280;3426;52.244;10.534;2022-12-13T12:43:03;100324.41;;;2.15;55.41
6778;BME280;3426;52.244;10.534;2022-12-13T12:45:52;100312.72;;;2.30;55.63
6778;BME280;3426;52.244;10.534;2022-12-13T12:51:49;100308.28;;;1.98;55.49
6778;BME280;3426;52.244;10.534;2022-12-13T12:57:33;100319.19;;;2.15;55.19
6778;BME280;3426;52.244;10.534;2022-12-13T13:00:13;100320.09;;;1.78;56.13
6778;BME280;3426;52.244;10.534;2022-12-13T13:03:08;100314.47;;;1.58;56.15
6778;BME280;3426;52.244;10.534;2022-12-13T13:05:53;100306.53;;;1.98;55.85
6778;BME280;3426;52.244;10.534;2022-12-13T13:11:07;100311.81;;;1.97;56.06
6778;BME280;3426;52.244;10.534;2022-12-13T13:21:57;100303.50;;;2.15;55.28
6778;BME280;3426;52.244;10.534;2022-12-13T13:24:28;100296.47;;;2.19;54.76
6778;BME280;3426;52.244;10.534;2022-12-13T13:26:57;100297.69;;;2.38;55.53
6778;BME280;3426;52.244;10.534;2022-12-13T13:34:50;100295.75;;;2.46;55.26
6778;BME280;3426;52.244;10.534;2022-12-13T13:42:25;100302.00;;;2.41;54.10
6778;BME280;3426;52.244;10.534;2022-12-13T13:44:55;100305.06;;;2.55;54.72
6778;BME280;3426;52.244;10.534;2022-12-13T13:53:00;100302.72;;;2.46;55.82
6778;BME280;3426;52.244;10.534;2022-12-13T13:56:07;100308.28;;;2.33;55.17
6778;BME280;3426;52.244;10.534;2022-12-13T14:04:44;100302.63;;;2.49;54.97
6778;BME280;3426;52.244;10.534;2022-12-13T14:10:15;100314.44;;;2.31;54.65
6778;BME280;3426;52.244;10.534;2022-12-13T14:21:53;100312.03;;;2.23;55.28
6778;BME280;3426;52.244;10.534;2022-12-13T14:29:56;100299.50;;;2.02;56.13
6778;BME280;3426;52.244;10.534;2022-12-13T14:32:27;100303.81;;;2.03;55.96
6778;BME280;3426;52.244;10.534;2022-12-13T14:34:55;100300.50;;;2.30;55.03
6778;BME280;3426;52.244;10.534;2022-12-13T14:37:33;100298.53;;;2.06;55.74
6778;BME280;3426;52.244;10.534;2022-12-13T14:40:15;100296.75;;;2.41;55.83
6778;BME280;3426;52.244;10.534;2022-12-13T14:42:51;100291.19;;;2.20;55.04
6778;BME280;3426;52.244;10.534;2022-12-13T14:45:34;100290.78;;;1.67;57.12
6778;BME280;3426;52.244;10.534;2022-12-13T14:48:11;100300.63;;;1.92;57.19
6778;BME280;3426;52.244;10.534;2022-12-13T14:50:40;100303.00;;;1.65;58.45
6778;BME280;3426;52.244;10.534;2022-12-13T14:53:23;100292.78;;;1.56;58.91
6778;BME280;3426;52.244;10.534;2022-12-13T14:56:10;100293.22;;;2.09;57.78
6778;BME280;3426;52.244;10.534;2022-12-13T14:59:01;100301.94;;;2.08;57.51
6778;BME280;3426;52.244;10.534;2022-12-13T15:01:29;100290.22;;;2.24;57.58
6778;BME280;3426;52.244;10.534;2022-12-13T15:04:16;100304.09;;;2.26;57.29
6778;BME280;3426;52.244;10.534;2022-12-13T15:06:43;100307.03;;;2.14;57.29
6778;BME280;3426;52.244;10.534;2022-12-13T15:09:15;100306.91;;;2.19;57.45
6778;BME280;3426;52.244;10.534;2022-12-13T15:11:43;100297.03;;;1.96;58.35
6778;BME280;3426;52.244;10.534;2022-12-13T15:14:17;100305.31;;;2.13;57.96
6778;BME280;3426;52.244;10.534;2022-12-13T15:16:51;100309.63;;;2.14;57.60
6778;BME280;3426;52.244;10.534;2022-12-13T15:19:20;100307.94;;;2.13;57.85
6778;BME280;3426;52.244;10.534;2022-12-13T15:21:58;100310.75;;;2.04;58.18
6778;BME280;3426;52.244;10.534;2022-12-13T15:24:30;100309.09;;;1.66;59.27
6778;BME280;3426;52.244;10.534;2022-12-13T15:26:57;100305.53;;;1.68;59.40
6778;BME280;3426;52.244;10.534;2022-12-13T15:29:28;100305.53;;;1.68;59.32